Archival Weather

Norman Y Mineta San Jose Intl

San Jose, California (KSJC)

Report from: Sunday, February 11, 2024 11:53 PM PST
Current time: Monday, June 24, 2024 2:55 AM PDT

Current weather – Weather history – Daily summaries
Weather forecast

Temperature9.4°C (48.9°F)
Dew point4.4°C (39.9°F)
Winds Calm
Visibility10 mi. (16.1 km)
Clouds Few clouds 2,200 ft. (671 m)
Altimeter30.22 in.Hg (1023 mB)
Relative humidity71 %
Density altitude-884 ft. (-269 m)
Sea-level pressure102.3 kPa (1023 mB, 30.22 in.Hg)
Max temp last 24 hours17.8°C (64.0°F)
Min temp last 24 hours5.6°C (42.1°F)
Remarks Automated weather observing station with precipitation discriminator
Flight conditions Visual Meteorological Conditions
Raw dataKSJC 120753Z 00000KT 10SM FEW022 09/04 A3022 RMK AO2 SLP232 T00940044 401780056
An error has occurred. This application may no longer respond until reloaded. Reload 🗙